createdAt,value
2018-07-02T00:00:09.143Z,83.50
2018-07-02T00:02:38.041Z,83.30
2018-07-02T00:05:07.008Z,83.40
2018-07-02T00:07:35.912Z,84.40
2018-07-02T00:10:05.150Z,84.00
2018-07-02T00:12:34.042Z,84.60
2018-07-02T00:15:02.943Z,85.10
2018-07-02T00:17:31.826Z,85.20
2018-07-02T00:20:00.702Z,86.20
2018-07-02T00:22:29.583Z,85.80
2018-07-02T00:24:58.460Z,86.20
2018-07-02T00:27:27.349Z,86.80
2018-07-02T00:29:56.222Z,87.50
2018-07-02T00:32:25.134Z,87.30
2018-07-02T00:34:54.033Z,87.40
2018-07-02T00:37:22.927Z,89.00
2018-07-02T00:39:51.850Z,88.50
2018-07-02T00:42:20.826Z,89.00
2018-07-02T00:44:49.715Z,89.00
2018-07-02T00:47:18.594Z,89.80
2018-07-02T00:49:47.466Z,90.10
2018-07-02T00:52:16.355Z,90.30
2018-07-02T00:54:45.226Z,90.50
2018-07-02T00:57:14.124Z,90.70
2018-07-02T00:59:42.998Z,90.90
2018-07-02T01:04:40.431Z,91.40
2018-07-02T01:07:09.410Z,91.50
2018-07-02T01:09:38.297Z,91.50
2018-07-02T01:12:07.218Z,91.70
2018-07-02T01:14:36.180Z,91.90
2018-07-02T01:17:05.086Z,91.80
2018-07-02T01:19:33.962Z,91.90
2018-07-02T01:22:02.858Z,91.90
2018-07-02T01:24:31.747Z,92.30
2018-07-02T01:27:00.665Z,92.30
2018-07-02T01:29:29.513Z,92.30
2018-07-02T01:31:58.382Z,92.30
2018-07-02T01:34:27.280Z,92.70
2018-07-02T01:36:56.174Z,92.70
2018-07-02T01:39:25.066Z,92.40
2018-07-02T01:41:53.945Z,93.20
2018-07-02T01:44:22.942Z,93.40
2018-07-02T01:46:51.826Z,93.60
2018-07-02T01:49:20.706Z,93.30
2018-07-02T01:51:49.590Z,93.80
2018-07-02T01:54:18.503Z,93.60
2018-07-02T01:56:47.398Z,93.50
2018-07-02T01:59:16.339Z,93.90
2018-07-02T02:01:45.226Z,94.20
2018-07-02T02:04:14.174Z,94.60
2018-07-02T02:06:43.096Z,94.60
2018-07-02T02:09:12.226Z,94.70
2018-07-02T02:11:41.135Z,94.70
2018-07-02T02:14:10.041Z,94.60
2018-07-02T02:16:38.944Z,94.30
2018-07-02T02:19:08.224Z,94.40
2018-07-02T02:21:37.295Z,94.30
2018-07-02T02:24:06.220Z,94.30
2018-07-02T02:26:35.091Z,94.60
2018-07-02T02:29:03.983Z,94.70
2018-07-02T02:31:32.879Z,94.90
2018-07-02T02:34:01.760Z,94.90
2018-07-02T02:36:30.665Z,94.90
2018-07-02T02:38:59.553Z,95.10
2018-07-02T02:41:28.434Z,95.00
2018-07-02T02:43:57.322Z,95.30
2018-07-02T02:46:26.228Z,94.90
2018-07-02T02:48:55.117Z,95.20
2018-07-02T02:51:24.015Z,95.20
2018-07-02T02:53:52.902Z,95.20
2018-07-02T02:56:21.805Z,95.40
2018-07-02T02:58:50.741Z,94.90
2018-07-02T03:01:19.618Z,95.00
2018-07-02T03:03:48.503Z,95.10
2018-07-02T03:06:17.416Z,95.30
2018-07-02T03:08:46.294Z,95.20
2018-07-02T03:11:15.182Z,95.60
2018-07-02T03:13:44.287Z,95.40
2018-07-02T03:16:13.211Z,95.50
2018-07-02T03:18:42.110Z,95.50
2018-07-02T03:21:12.289Z,95.50
2018-07-02T03:23:41.162Z,95.70
2018-07-02T03:26:10.476Z,95.70
2018-07-02T03:28:39.361Z,95.90
2018-07-02T03:31:08.272Z,96.30
2018-07-02T03:33:37.166Z,95.80
2018-07-02T03:36:06.081Z,96.40
2018-07-02T03:38:34.975Z,97.00
2018-07-02T03:41:03.874Z,96.90
2018-07-02T03:43:32.842Z,96.30
2018-07-02T03:46:01.755Z,96.90
2018-07-02T03:48:30.684Z,96.60
2018-07-02T03:50:59.579Z,97.80
2018-07-02T03:53:28.514Z,97.20
2018-07-02T03:55:57.418Z,97.30
2018-07-02T03:58:26.370Z,97.40
2018-07-02T04:00:55.554Z,97.20
2018-07-02T04:03:24.763Z,97.80
2018-07-02T04:05:53.687Z,97.10
2018-07-02T04:08:22.590Z,97.10
2018-07-02T04:10:51.479Z,97.50
2018-07-02T04:13:20.394Z,97.10
2018-07-02T04:15:49.314Z,96.70
2018-07-02T04:18:18.475Z,96.70
2018-07-02T04:20:47.368Z,97.20
2018-07-02T04:23:16.263Z,96.80
2018-07-02T04:25:45.151Z,96.60
2018-07-02T04:28:14.058Z,96.80
2018-07-02T04:30:42.938Z,96.30
2018-07-02T04:33:11.838Z,96.10
2018-07-02T04:35:40.731Z,96.30
2018-07-02T04:38:09.621Z,96.30
2018-07-02T04:40:38.514Z,95.60
2018-07-02T04:43:07.415Z,95.90
2018-07-02T04:45:36.304Z,95.50
2018-07-02T04:50:34.335Z,95.60
2018-07-02T04:53:03.298Z,95.40
2018-07-02T04:55:32.228Z,95.40
2018-07-02T04:58:01.605Z,95.30
2018-07-02T05:00:30.517Z,95.20
2018-07-02T05:02:59.527Z,95.40
2018-07-02T05:05:28.446Z,95.70
2018-07-02T05:07:57.427Z,95.80
2018-07-02T05:12:54.768Z,95.20
2018-07-02T05:15:23.760Z,95.90
2018-07-02T05:17:52.637Z,94.70
2018-07-02T05:20:21.597Z,94.60
2018-07-02T05:22:50.482Z,94.30
2018-07-02T05:25:19.392Z,94.40
2018-07-02T05:27:48.278Z,94.60
2018-07-02T05:30:17.182Z,95.10
2018-07-02T05:32:46.089Z,94.40
2018-07-02T05:35:14.994Z,93.90
2018-07-02T05:37:43.894Z,94.60
2018-07-02T05:40:12.799Z,94.80
2018-07-02T05:42:41.698Z,93.80
2018-07-02T05:45:10.644Z,93.90
2018-07-02T05:47:39.482Z,93.90
2018-07-02T05:50:08.383Z,93.70
2018-07-02T05:52:37.263Z,93.30
2018-07-02T05:55:06.167Z,93.40
2018-07-02T05:57:35.059Z,92.50
2018-07-02T06:00:04.323Z,93.00
2018-07-02T06:02:33.231Z,92.50
2018-07-02T06:05:02.361Z,91.90
2018-07-02T06:07:31.259Z,91.80
2018-07-02T06:10:00.160Z,91.40
2018-07-02T06:12:29.078Z,92.10
2018-07-02T06:14:57.958Z,91.30
2018-07-02T06:17:26.871Z,91.40
2018-07-02T06:19:55.778Z,90.20
2018-07-02T06:22:24.675Z,90.50
2018-07-02T06:24:53.605Z,90.30
2018-07-02T06:27:22.450Z,90.60
2018-07-02T06:29:51.330Z,90.10
2018-07-02T06:32:20.222Z,88.80
2018-07-02T06:34:49.116Z,89.20
2018-07-02T06:37:17.997Z,87.70
2018-07-02T06:39:46.884Z,88.50
2018-07-02T06:42:15.798Z,89.20
2018-07-02T06:44:44.707Z,87.60
2018-07-02T06:47:13.618Z,85.50
2018-07-02T06:49:42.505Z,87.00
2018-07-02T06:52:11.405Z,86.10
2018-07-02T06:54:40.284Z,84.70
2018-07-02T06:57:09.187Z,84.50
2018-07-02T06:59:38.071Z,83.70
2018-07-02T07:02:06.953Z,83.30
2018-07-02T07:04:35.842Z,82.50
2018-07-02T07:07:04.734Z,81.80
2018-07-02T07:09:33.610Z,80.80
2018-07-02T07:12:02.529Z,79.80
2018-07-02T07:14:31.412Z,77.00
2018-07-02T07:17:00.322Z,78.00
2018-07-02T07:19:29.256Z,77.20
2018-07-02T07:21:58.257Z,76.10
2018-07-02T07:24:27.142Z,77.60
2018-07-02T07:26:56.023Z,77.90
2018-07-02T07:29:24.929Z,76.40
2018-07-02T07:31:53.816Z,75.20
2018-07-02T07:34:22.724Z,76.30
2018-07-02T07:36:51.615Z,77.20
2018-07-02T07:39:20.528Z,73.20
2018-07-02T07:41:49.419Z,73.40
2018-07-02T07:44:18.324Z,72.60
2018-07-02T07:46:47.619Z,73.40
2018-07-02T07:49:16.531Z,73.50
2018-07-02T07:51:45.422Z,73.10
2018-07-02T07:54:14.319Z,72.10
2018-07-02T07:56:43.202Z,71.50
2018-07-02T07:59:12.484Z,71.30
2018-07-02T08:01:41.344Z,71.30
2018-07-02T08:04:10.268Z,72.70
2018-07-02T08:06:39.163Z,69.70
2018-07-02T08:09:09.142Z,68.60
2018-07-02T08:11:38.063Z,67.40
2018-07-02T08:14:06.995Z,68.40
2018-07-02T08:16:35.990Z,68.10
2018-07-02T08:19:04.899Z,67.20
2018-07-02T08:21:33.798Z,68.50
2018-07-02T08:24:02.737Z,68.00
2018-07-02T08:26:31.623Z,66.70
2018-07-02T08:29:00.527Z,65.10
2018-07-02T08:31:29.407Z,66.40
2018-07-02T08:33:58.302Z,66.60
2018-07-02T08:36:27.191Z,65.80
2018-07-02T08:38:56.093Z,65.50
2018-07-02T08:41:24.993Z,65.70
2018-07-02T08:43:54.266Z,64.10
2018-07-02T08:46:23.142Z,66.50
2018-07-02T08:48:52.049Z,63.20
2018-07-02T08:51:20.922Z,61.20
2018-07-02T08:53:49.820Z,63.40
2018-07-02T08:56:18.699Z,59.10
2018-07-02T08:58:47.595Z,60.60
2018-07-02T09:01:16.479Z,58.80
2018-07-02T09:06:13.947Z,61.20
2018-07-02T09:11:11.554Z,60.20
2018-07-02T09:13:40.673Z,57.10
2018-07-02T09:16:09.580Z,56.90
2018-07-02T09:18:38.558Z,57.40
2018-07-02T09:21:07.471Z,54.60
2018-07-02T09:23:36.385Z,57.10
2018-07-02T09:26:05.606Z,56.80
2018-07-02T09:28:34.491Z,58.30
2018-07-02T09:31:03.388Z,57.20
2018-07-02T09:33:32.267Z,53.20
2018-07-02T09:36:01.157Z,52.30
2018-07-02T09:38:30.035Z,51.70
2018-07-02T09:40:58.935Z,52.10
2018-07-02T09:43:27.818Z,50.80
2018-07-02T09:45:56.767Z,51.70
2018-07-02T09:48:25.718Z,52.30
2018-07-02T09:50:54.616Z,50.70
2018-07-02T09:53:23.507Z,50.40
2018-07-02T09:55:52.487Z,47.30
2018-07-02T09:58:21.465Z,51.80
2018-07-02T10:00:50.374Z,50.50
2018-07-02T10:03:19.259Z,45.30
2018-07-02T10:05:48.169Z,46.50
2018-07-02T10:08:17.066Z,47.20
2018-07-02T10:10:45.983Z,45.90
2018-07-02T10:13:14.873Z,48.80
2018-07-02T10:15:43.831Z,51.90
2018-07-02T10:18:12.717Z,49.70
2018-07-02T10:20:41.627Z,51.50
2018-07-02T10:23:10.522Z,48.60
2018-07-02T10:25:39.435Z,47.40
2018-07-02T10:28:08.341Z,49.00
2018-07-02T10:30:37.242Z,45.70
2018-07-02T10:33:06.145Z,48.80
2018-07-02T10:35:35.044Z,43.80
2018-07-02T10:38:03.943Z,43.50
2018-07-02T10:40:32.843Z,41.30
2018-07-02T10:43:01.738Z,41.50
2018-07-02T10:45:30.624Z,42.90
2018-07-02T10:47:59.514Z,44.10
2018-07-02T10:50:28.432Z,42.40
2018-07-02T10:52:57.309Z,46.20
2018-07-02T10:55:26.203Z,46.90
2018-07-02T10:57:55.106Z,44.00
2018-07-02T11:00:24.007Z,44.50
2018-07-02T11:02:52.899Z,39.20
2018-07-02T11:05:21.803Z,41.70
2018-07-02T11:07:50.706Z,42.50
2018-07-02T11:10:19.606Z,43.20
2018-07-02T11:12:48.495Z,40.20
2018-07-02T11:15:17.406Z,40.90
2018-07-02T11:17:46.290Z,39.50
2018-07-02T11:20:15.258Z,39.40
2018-07-02T11:22:44.169Z,42.90
2018-07-02T11:25:13.118Z,40.70
2018-07-02T11:27:42.133Z,39.90
2018-07-02T11:30:11.018Z,38.80
2018-07-02T11:32:39.901Z,38.80
2018-07-02T11:35:08.800Z,39.60
2018-07-02T11:37:37.710Z,41.20
2018-07-02T11:40:06.598Z,39.70
2018-07-02T11:42:35.509Z,40.60
2018-07-02T11:45:04.682Z,37.90
2018-07-02T11:47:33.683Z,37.20
2018-07-02T11:50:02.582Z,38.80
2018-07-02T11:52:31.487Z,39.90
2018-07-02T11:55:00.374Z,38.70
2018-07-02T11:57:29.542Z,36.40
2018-07-02T11:59:58.371Z,38.40
2018-07-02T12:02:27.263Z,38.00
2018-07-02T12:04:56.139Z,36.50
2018-07-02T12:07:25.035Z,40.50
2018-07-02T12:09:53.971Z,39.40
2018-07-02T12:12:22.828Z,37.90
2018-07-02T12:14:51.730Z,38.40
2018-07-02T12:17:20.640Z,40.20
2018-07-02T12:19:49.588Z,38.40
2018-07-02T12:22:18.482Z,37.80
2018-07-02T12:24:47.362Z,38.10
2018-07-02T12:27:16.267Z,38.40
2018-07-02T12:29:45.142Z,39.70
2018-07-02T12:32:14.038Z,38.40
2018-07-02T12:34:42.922Z,35.10
2018-07-02T12:37:11.851Z,35.50
2018-07-02T12:39:40.760Z,39.40
2018-07-02T12:42:09.679Z,37.30
2018-07-02T12:44:38.555Z,37.00
2018-07-02T12:47:07.460Z,37.00
2018-07-02T12:49:36.345Z,35.20
2018-07-02T12:52:05.327Z,36.50
2018-07-02T12:54:34.219Z,36.90
2018-07-02T12:57:03.127Z,37.00
2018-07-02T12:59:32.050Z,36.30
2018-07-02T13:02:00.960Z,37.50
2018-07-02T13:04:29.831Z,37.00
2018-07-02T13:06:58.751Z,38.00
2018-07-02T13:09:27.748Z,37.80
2018-07-02T13:11:57.062Z,37.10
2018-07-02T13:14:25.958Z,37.80
2018-07-02T13:16:54.858Z,38.50
2018-07-02T13:19:23.741Z,36.50
2018-07-02T13:21:52.641Z,37.30
2018-07-02T13:24:21.527Z,37.60
2018-07-02T13:26:50.485Z,36.70
2018-07-02T13:29:19.287Z,38.80
2018-07-02T13:31:48.159Z,38.90
2018-07-02T13:34:17.054Z,35.50
2018-07-02T13:36:45.938Z,36.20
2018-07-02T13:39:14.827Z,37.00
2018-07-02T13:41:43.743Z,35.90
2018-07-02T13:44:12.614Z,35.60
2018-07-02T13:46:41.511Z,35.20
2018-07-02T13:49:10.416Z,35.90
2018-07-02T13:54:39.330Z,37.20
2018-07-02T13:57:09.517Z,36.90
2018-07-02T13:59:38.395Z,35.90
2018-07-02T14:02:07.282Z,36.20
2018-07-02T14:04:36.191Z,36.90
2018-07-02T14:07:05.134Z,38.90
2018-07-02T14:09:34.031Z,37.70
2018-07-02T14:12:02.930Z,36.50
2018-07-02T14:14:31.893Z,36.70
2018-07-02T14:17:00.726Z,39.00
2018-07-02T14:19:47.235Z,38.00
2018-07-02T14:22:18.269Z,35.70
2018-07-02T14:24:47.170Z,38.10
2018-07-02T14:27:16.100Z,34.50
2018-07-02T14:29:45.083Z,36.90
2018-07-02T14:32:13.971Z,35.20
2018-07-02T14:34:44.797Z,37.10
2018-07-02T14:37:15.509Z,36.70
2018-07-02T14:39:44.511Z,38.60
2018-07-02T14:42:13.399Z,37.40
2018-07-02T14:44:42.369Z,35.40
2018-07-02T14:47:11.171Z,38.10
2018-07-02T14:49:40.078Z,38.00
2018-07-02T14:52:08.986Z,36.20
2018-07-02T14:54:37.879Z,37.50
2018-07-02T14:57:06.785Z,35.70
2018-07-02T14:59:35.761Z,36.30
2018-07-02T15:02:04.658Z,36.40
2018-07-02T15:04:33.576Z,36.00
2018-07-02T15:07:02.476Z,37.60
2018-07-02T15:12:00.037Z,35.90
2018-07-02T15:14:28.954Z,35.70
2018-07-02T15:16:57.866Z,37.20
2018-07-02T15:19:26.769Z,37.20
2018-07-02T15:21:55.643Z,36.90
2018-07-02T15:24:24.685Z,35.60
2018-07-02T15:26:53.748Z,36.40
2018-07-02T15:29:22.654Z,38.10
2018-07-02T15:31:52.010Z,37.30
2018-07-02T15:34:21.484Z,37.70
2018-07-02T15:39:19.369Z,40.20
2018-07-02T15:41:48.382Z,38.60
2018-07-02T15:44:17.184Z,37.30
2018-07-02T15:46:46.106Z,37.80
2018-07-02T15:49:14.966Z,37.40
2018-07-02T15:51:43.874Z,37.90
2018-07-02T15:54:12.747Z,38.80
2018-07-02T15:56:41.674Z,38.10
2018-07-02T15:59:10.578Z,37.70
2018-07-02T16:01:39.580Z,37.40
2018-07-02T16:04:08.697Z,37.60
2018-07-02T16:06:37.720Z,39.70
2018-07-02T16:09:08.668Z,38.30
2018-07-02T16:11:37.459Z,39.60
2018-07-02T16:14:06.349Z,37.90
2018-07-02T16:16:35.258Z,38.30
2018-07-02T16:19:04.221Z,39.60
2018-07-02T16:21:33.110Z,38.50
2018-07-02T16:24:02.323Z,39.30
2018-07-02T16:26:31.239Z,39.80
2018-07-02T16:29:00.144Z,39.00
2018-07-02T16:31:29.280Z,39.40
2018-07-02T16:33:58.255Z,37.90
2018-07-02T16:36:27.347Z,38.70
2018-07-02T16:38:56.239Z,39.40
2018-07-02T16:41:25.339Z,39.30
2018-07-02T16:43:54.612Z,39.20
2018-07-02T16:46:23.626Z,38.70
2018-07-02T16:48:52.616Z,39.50
2018-07-02T16:51:21.697Z,39.60
2018-07-02T16:53:50.667Z,40.20
2018-07-02T16:56:19.606Z,39.80
2018-07-02T16:58:49.045Z,40.60
2018-07-02T17:01:18.054Z,40.70
2018-07-02T17:03:47.142Z,38.70
2018-07-02T17:06:16.597Z,40.80
2018-07-02T17:08:45.470Z,39.30
2018-07-02T17:11:14.654Z,40.10
2018-07-02T17:13:43.703Z,41.10
2018-07-02T17:16:12.640Z,41.40
2018-07-02T17:18:41.530Z,41.00
2018-07-02T17:21:10.419Z,42.70
2018-07-02T17:23:39.309Z,41.50
2018-07-02T17:26:08.508Z,42.10
2018-07-02T17:28:37.411Z,40.80
2018-07-02T17:31:06.607Z,41.60
2018-07-02T17:33:35.489Z,40.10
2018-07-02T17:36:04.431Z,41.10
2018-07-02T17:38:33.484Z,40.00
2018-07-02T17:41:06.914Z,40.50
2018-07-02T17:43:35.910Z,42.80
2018-07-02T17:46:04.859Z,41.60
2018-07-02T17:48:33.746Z,41.50
2018-07-02T17:51:02.679Z,42.50
2018-07-02T17:53:31.591Z,43.30
2018-07-02T17:56:00.483Z,41.50
2018-07-02T17:58:30.028Z,42.20
2018-07-02T18:01:00.151Z,43.60
2018-07-02T18:03:31.708Z,41.00
2018-07-02T18:08:33.170Z,42.50
2018-07-02T18:11:04.442Z,41.90
2018-07-02T18:13:35.386Z,43.00
2018-07-02T18:16:06.293Z,44.10
2018-07-02T18:18:38.135Z,42.90
2018-07-02T18:21:10.004Z,44.90
2018-07-02T18:23:39.051Z,45.60
2018-07-02T18:26:07.952Z,46.10
2018-07-02T18:28:37.098Z,44.50
2018-07-02T18:31:06.018Z,44.40
2018-07-02T18:33:34.933Z,50.10
2018-07-02T18:36:03.838Z,48.70
2018-07-02T18:38:32.731Z,53.30
2018-07-02T18:41:01.645Z,57.30
2018-07-02T18:43:30.543Z,58.60
2018-07-02T18:45:59.681Z,58.90
2018-07-02T18:48:28.604Z,65.30
2018-07-02T18:50:57.474Z,68.30
2018-07-02T18:53:26.430Z,68.90
2018-07-02T18:55:55.322Z,68.10
2018-07-02T18:58:24.215Z,68.40
2018-07-02T19:00:53.131Z,71.10
2018-07-02T19:03:22.074Z,67.70
2018-07-02T19:05:51.038Z,66.40
2018-07-02T19:08:19.969Z,72.90
2018-07-02T19:10:48.862Z,78.90
2018-07-02T19:13:18.180Z,83.90
2018-07-02T19:15:47.469Z,88.30
2018-07-02T19:18:16.410Z,87.80
2018-07-02T19:20:45.347Z,85.40
2018-07-02T19:23:14.249Z,82.10
2018-07-02T19:25:43.174Z,82.00
2018-07-02T19:28:12.091Z,80.00
2018-07-02T19:30:41.151Z,77.90
2018-07-02T19:33:10.049Z,80.40
2018-07-02T19:35:38.947Z,88.00
2018-07-02T19:38:07.834Z,84.20
2018-07-02T19:40:36.723Z,82.20
2018-07-02T19:45:34.822Z,88.80
2018-07-02T19:48:04.015Z,88.60
2018-07-02T19:50:32.931Z,89.10
2018-07-02T19:53:01.832Z,88.60
2018-07-02T19:55:30.767Z,81.10
2018-07-02T19:57:59.685Z,84.30
2018-07-02T20:00:28.633Z,88.00
2018-07-02T20:02:57.475Z,84.60
2018-07-02T20:05:26.387Z,85.60
2018-07-02T20:07:55.943Z,88.20
2018-07-02T20:10:24.851Z,87.40
2018-07-02T20:12:54.083Z,86.80
2018-07-02T20:15:23.008Z,86.40
2018-07-02T20:17:53.655Z,85.80
2018-07-02T20:20:24.196Z,90.00
2018-07-02T20:22:55.128Z,90.00
2018-07-02T20:25:25.682Z,90.90
2018-07-02T20:27:57.080Z,92.80
2018-07-02T20:30:29.123Z,92.80
2018-07-02T20:33:00.331Z,92.00
2018-07-02T20:35:31.765Z,90.30
2018-07-02T20:38:02.861Z,91.30
2018-07-02T20:40:33.902Z,92.10
2018-07-02T20:43:04.616Z,93.90
2018-07-02T20:45:35.455Z,93.20
2018-07-02T20:48:06.227Z,92.60
2018-07-02T20:50:36.962Z,93.20
2018-07-02T20:53:08.039Z,94.20
2018-07-02T20:55:38.356Z,94.60
2018-07-02T20:58:08.842Z,93.60
2018-07-02T21:00:39.739Z,94.80
2018-07-02T21:03:10.818Z,95.90
2018-07-02T21:05:41.985Z,95.80
2018-07-02T21:08:12.595Z,96.70
2018-07-02T21:10:41.807Z,98.30
2018-07-02T21:13:10.754Z,98.00
2018-07-02T21:15:39.776Z,96.40
2018-07-02T21:18:09.179Z,95.10
2018-07-02T21:20:39.003Z,95.60
2018-07-02T21:23:08.286Z,94.20
2018-07-02T21:25:37.291Z,93.80
2018-07-02T21:28:06.357Z,93.90
2018-07-02T21:30:35.268Z,92.60
2018-07-02T21:33:04.822Z,92.10
2018-07-02T21:35:34.182Z,91.60
2018-07-02T21:38:03.278Z,89.30
2018-07-02T21:40:32.610Z,89.00
2018-07-02T21:43:01.781Z,87.30
2018-07-02T21:45:30.954Z,90.00
2018-07-02T21:48:00.136Z,86.80
2018-07-02T21:50:29.408Z,86.50
2018-07-02T21:52:58.816Z,91.30
2018-07-02T21:55:27.925Z,90.00
2018-07-02T21:57:56.924Z,90.20
2018-07-02T22:00:25.824Z,90.60
2018-07-02T22:02:54.718Z,90.50
2018-07-02T22:05:23.688Z,91.50
2018-07-02T22:07:52.602Z,91.40
2018-07-02T22:10:21.607Z,91.70
2018-07-02T22:12:50.547Z,91.50
2018-07-02T22:15:19.483Z,91.70
2018-07-02T22:17:48.392Z,93.80
2018-07-02T22:20:17.310Z,93.60
2018-07-02T22:22:46.195Z,92.10
2018-07-02T22:25:15.102Z,90.80
2018-07-02T22:27:43.994Z,91.00
2018-07-02T22:30:12.926Z,90.80
2018-07-02T22:32:41.830Z,92.40
2018-07-02T22:35:10.726Z,95.40
2018-07-02T22:37:39.715Z,96.60
2018-07-02T22:40:08.620Z,96.10
2018-07-02T22:42:37.518Z,96.60
2018-07-02T22:45:06.730Z,97.00
2018-07-02T22:47:35.610Z,95.50
2018-07-02T22:50:04.531Z,95.00
2018-07-02T22:52:33.428Z,94.70
2018-07-02T22:55:02.348Z,95.00
2018-07-02T22:57:31.234Z,96.50
2018-07-02T23:00:00.150Z,96.80
2018-07-02T23:02:29.071Z,96.90
2018-07-02T23:04:57.980Z,96.50
2018-07-02T23:07:26.883Z,96.20
2018-07-02T23:09:55.795Z,95.40
2018-07-02T23:12:24.760Z,95.90
2018-07-02T23:14:53.663Z,96.30
2018-07-02T23:17:22.561Z,96.40
2018-07-02T23:19:51.469Z,96.70
2018-07-02T23:22:20.381Z,97.00
2018-07-02T23:24:49.294Z,98.60
2018-07-02T23:27:18.200Z,99.00
2018-07-02T23:30:07.519Z,98.50
2018-07-02T23:32:36.433Z,98.10
2018-07-02T23:35:05.350Z,99.90
2018-07-02T23:37:34.246Z,98.40
2018-07-02T23:40:03.191Z,98.40
2018-07-02T23:45:00.660Z,99.90
2018-07-02T23:47:29.622Z,99.90
2018-07-02T23:49:58.547Z,99.90
2018-07-02T23:52:27.478Z,99.80
2018-07-02T23:54:56.396Z,99.90
2018-07-02T23:57:25.291Z,99.90
2018-07-02T23:59:54.261Z,99.90
